createdAt,value
2018-06-11T00:01:41.075Z,23.50
2018-06-11T00:04:08.376Z,23.43
2018-06-11T00:06:35.614Z,23.60
2018-06-11T00:09:04.794Z,24.03
2018-06-11T00:11:32.203Z,23.00
2018-06-11T00:14:00.124Z,23.37
2018-06-11T00:16:27.859Z,23.87
2018-06-11T00:18:55.060Z,25.93
2018-06-11T00:21:22.280Z,23.40
2018-06-11T00:23:49.535Z,22.53
2018-06-11T00:26:16.783Z,23.60
2018-06-11T00:28:43.996Z,23.80
2018-06-11T00:31:11.235Z,23.33
2018-06-11T00:33:38.415Z,24.23
2018-06-11T00:36:05.654Z,24.60
2018-06-11T00:38:32.869Z,24.43
2018-06-11T00:41:00.121Z,25.50
2018-06-11T00:43:27.383Z,25.70
2018-06-11T00:45:54.620Z,23.10
2018-06-11T00:48:21.888Z,25.50
2018-06-11T00:50:49.099Z,24.27
2018-06-11T00:53:16.346Z,24.37
2018-06-11T00:55:55.279Z,24.10
2018-06-11T00:58:22.480Z,24.00
2018-06-11T01:00:49.801Z,24.50
2018-06-11T01:03:17.042Z,23.87
2018-06-11T01:05:45.527Z,23.77
2018-06-11T01:08:13.843Z,22.53
2018-06-11T01:10:41.138Z,22.73
2018-06-11T01:13:08.698Z,23.50
2018-06-11T01:15:35.924Z,22.60
2018-06-11T01:18:03.162Z,22.10
2018-06-11T01:20:30.456Z,24.67
2018-06-11T01:22:57.699Z,23.53
2018-06-11T01:25:24.984Z,21.60
2018-06-11T01:27:52.216Z,24.60
2018-06-11T01:30:19.460Z,22.73
2018-06-11T01:32:48.267Z,24.27
2018-06-11T01:35:15.831Z,23.27
2018-06-11T01:37:43.067Z,25.40
2018-06-11T01:40:10.375Z,26.50
2018-06-11T01:42:37.612Z,25.33
2018-06-11T01:45:04.836Z,27.50
2018-06-11T01:47:32.161Z,28.20
2018-06-11T01:49:59.519Z,28.70
2018-06-11T01:52:26.738Z,27.17
2018-06-11T01:54:54.044Z,28.50
2018-06-11T01:57:21.430Z,28.53
2018-06-11T01:59:48.735Z,26.67
2018-06-11T02:02:16.027Z,27.03
2018-06-11T02:04:44.976Z,24.27
2018-06-11T02:07:12.324Z,26.70
2018-06-11T02:09:39.523Z,25.10
2018-06-11T02:12:06.747Z,26.47
2018-06-11T02:14:33.999Z,27.00
2018-06-11T02:17:01.199Z,26.17
2018-06-11T02:19:28.431Z,24.77
2018-06-11T02:21:55.675Z,25.90
2018-06-11T02:24:22.850Z,27.70
2018-06-11T02:26:50.051Z,26.07
2018-06-11T02:29:17.363Z,26.07
2018-06-11T02:31:45.043Z,25.57
2018-06-11T02:34:12.432Z,26.60
2018-06-11T02:36:39.620Z,25.63
2018-06-11T02:39:07.580Z,24.47
2018-06-11T02:41:34.771Z,24.87
2018-06-11T02:44:02.388Z,27.70
2018-06-11T02:46:29.571Z,27.33
2018-06-11T02:48:56.790Z,26.93
2018-06-11T02:51:23.975Z,28.10
2018-06-11T02:53:51.167Z,25.90
2018-06-11T02:56:19.979Z,25.73
2018-06-11T02:58:47.203Z,24.13
2018-06-11T03:01:14.421Z,25.17
2018-06-11T03:03:41.659Z,25.30
2018-06-11T03:06:08.878Z,25.10
2018-06-11T03:08:36.124Z,25.60
2018-06-11T03:11:03.340Z,24.17
2018-06-11T03:13:30.568Z,25.17
2018-06-11T03:15:57.764Z,23.80
2018-06-11T03:18:25.004Z,23.00
2018-06-11T03:20:52.217Z,23.80
2018-06-11T03:23:19.424Z,22.40
2018-06-11T03:25:46.615Z,20.80
2018-06-11T03:28:14.291Z,21.43
2018-06-11T03:30:41.500Z,22.10
2018-06-11T03:33:08.710Z,22.50
2018-06-11T03:35:36.181Z,20.60
2018-06-11T03:38:03.391Z,21.00
2018-06-11T03:40:30.582Z,20.93
2018-06-11T03:42:57.767Z,20.03
2018-06-11T03:45:25.039Z,20.77
2018-06-11T03:47:52.267Z,22.00
2018-06-11T03:50:19.452Z,22.37
2018-06-11T03:52:46.662Z,21.17
2018-06-11T03:55:13.831Z,21.17
2018-06-11T03:57:41.114Z,20.63
2018-06-11T04:00:08.307Z,21.03
2018-06-11T04:02:35.484Z,21.77
2018-06-11T04:05:02.715Z,20.60
2018-06-11T04:07:29.912Z,20.77
2018-06-11T04:09:57.528Z,20.00
2018-06-11T04:12:24.764Z,22.17
2018-06-11T04:14:51.950Z,20.87
2018-06-11T04:17:19.836Z,21.30
2018-06-11T04:19:47.026Z,20.93
2018-06-11T04:22:14.303Z,20.77
2018-06-11T04:24:41.475Z,19.37
2018-06-11T04:27:08.643Z,20.00
2018-06-11T04:29:35.844Z,18.97
2018-06-11T04:32:03.045Z,19.67
2018-06-11T04:34:30.227Z,20.33
2018-06-11T04:36:57.395Z,19.60
2018-06-11T04:39:24.623Z,19.00
2018-06-11T04:41:51.787Z,19.47
2018-06-11T04:44:18.970Z,18.40
2018-06-11T04:46:46.140Z,19.03
2018-06-11T04:49:13.347Z,19.53
2018-06-11T04:51:40.531Z,19.87
2018-06-11T04:54:07.749Z,18.90
2018-06-11T04:56:34.937Z,18.90
2018-06-11T04:59:02.119Z,17.37
2018-06-11T05:01:29.296Z,18.50
2018-06-11T05:03:56.507Z,17.87
2018-06-11T05:06:23.675Z,20.00
2018-06-11T05:08:52.552Z,17.50
2018-06-11T05:11:19.815Z,18.17
2018-06-11T05:13:47.065Z,17.87
2018-06-11T05:16:14.312Z,18.40
2018-06-11T05:18:41.564Z,18.13
2018-06-11T05:21:08.783Z,19.40
2018-06-11T05:23:36.211Z,18.93
2018-06-11T05:26:03.484Z,16.47
2018-06-11T05:28:30.707Z,16.97
2018-06-11T05:30:57.945Z,16.13
2018-06-11T05:33:25.179Z,17.10
2018-06-11T05:35:52.423Z,17.10
2018-06-11T05:38:19.643Z,19.07
2018-06-11T05:40:47.038Z,16.83
2018-06-11T05:43:14.459Z,16.40
2018-06-11T05:45:41.855Z,15.67
2018-06-11T05:48:09.283Z,16.77
2018-06-11T05:50:36.743Z,16.70
2018-06-11T05:53:04.255Z,17.93
2018-06-11T05:55:31.671Z,18.33
2018-06-11T05:57:59.149Z,16.33
2018-06-11T06:00:26.555Z,16.63
2018-06-11T06:02:53.976Z,16.00
2018-06-11T06:05:21.742Z,16.27
2018-06-11T06:07:49.168Z,16.43
2018-06-11T06:10:16.809Z,17.77
2018-06-11T06:12:44.360Z,17.13
2018-06-11T06:15:11.793Z,15.77
2018-06-11T06:17:39.230Z,17.13
2018-06-11T06:20:06.698Z,17.73
2018-06-11T06:22:34.165Z,16.10
2018-06-11T06:25:01.741Z,17.10
2018-06-11T06:27:29.175Z,16.03
2018-06-11T06:29:56.627Z,17.20
2018-06-11T06:32:24.092Z,16.67
2018-06-11T06:34:51.718Z,18.00
2018-06-11T06:37:19.068Z,16.50
2018-06-11T06:39:46.616Z,15.90
2018-06-11T06:42:14.035Z,15.20
2018-06-11T06:44:41.469Z,18.30
2018-06-11T06:47:08.882Z,16.23
2018-06-11T06:49:36.308Z,19.30
2018-06-11T06:52:03.776Z,18.03
2018-06-11T06:54:31.305Z,18.43
2018-06-11T06:56:58.896Z,17.37
2018-06-11T06:59:26.333Z,17.67
2018-06-11T07:01:53.847Z,19.47
2018-06-11T07:04:21.271Z,19.97
2018-06-11T07:06:48.760Z,19.63
2018-06-11T07:09:16.151Z,18.40
2018-06-11T07:11:44.118Z,19.20
2018-06-11T07:14:11.474Z,18.80
2018-06-11T07:16:38.841Z,20.60
2018-06-11T07:19:06.240Z,17.63
2018-06-11T07:21:33.643Z,19.10
2018-06-11T07:24:01.079Z,18.33
2018-06-11T07:26:28.478Z,19.33
2018-06-11T07:28:55.872Z,19.13
2018-06-11T07:31:23.339Z,18.80
2018-06-11T07:33:50.684Z,20.10
2018-06-11T07:36:18.760Z,20.00
2018-06-11T07:38:46.147Z,18.97
2018-06-11T07:41:13.580Z,18.83
2018-06-11T07:43:41.577Z,20.13
2018-06-11T07:46:10.843Z,18.90
2018-06-11T07:48:38.245Z,20.60
2018-06-11T07:51:05.835Z,20.40
2018-06-11T07:53:33.284Z,21.80
2018-06-11T07:56:00.711Z,20.27
2018-06-11T07:58:32.939Z,22.17
2018-06-11T08:01:00.429Z,22.70
2018-06-11T08:03:27.852Z,21.13
2018-06-11T08:05:55.375Z,21.73
2018-06-11T08:08:22.734Z,21.13
2018-06-11T08:10:50.669Z,21.60
2018-06-11T08:13:22.296Z,21.37
2018-06-11T08:15:49.409Z,22.90
2018-06-11T08:18:16.612Z,20.70
2018-06-11T08:20:43.882Z,21.00
2018-06-11T08:23:11.195Z,21.03
2018-06-11T08:25:38.410Z,20.90
2018-06-11T08:28:10.120Z,22.87
2018-06-11T08:30:37.297Z,21.30
2018-06-11T08:33:04.560Z,21.60
2018-06-11T08:35:31.848Z,20.60
2018-06-11T08:37:59.142Z,21.90
2018-06-11T08:40:26.344Z,21.53
2018-06-11T08:42:53.656Z,21.63
2018-06-11T08:45:20.941Z,23.40
2018-06-11T08:47:48.136Z,23.07
2018-06-11T08:50:15.352Z,22.30
2018-06-11T08:52:42.561Z,23.03
2018-06-11T08:55:09.772Z,20.90
2018-06-11T08:57:36.960Z,22.30
2018-06-11T09:00:04.959Z,23.27
2018-06-11T09:02:32.369Z,23.33
2018-06-11T09:04:59.904Z,24.07
2018-06-11T09:07:27.407Z,24.40
2018-06-11T09:09:54.955Z,25.17
2018-06-11T09:12:22.339Z,23.97
2018-06-11T09:14:49.766Z,22.73
2018-06-11T09:17:17.144Z,25.37
2018-06-11T09:19:44.595Z,26.40
2018-06-11T09:22:12.075Z,23.93
2018-06-11T09:24:39.480Z,27.67
2018-06-11T09:27:06.893Z,24.07
2018-06-11T09:29:34.247Z,25.67
2018-06-11T09:32:01.923Z,24.03
2018-06-11T09:34:32.079Z,25.60
2018-06-11T09:36:59.568Z,27.40
2018-06-11T09:39:26.955Z,27.10
2018-06-11T09:41:54.475Z,29.77
2018-06-11T09:44:21.900Z,32.13
2018-06-11T09:49:21.656Z,27.80
2018-06-11T09:51:48.867Z,31.63
2018-06-11T09:54:16.088Z,32.20
2018-06-11T09:56:43.921Z,32.13
2018-06-11T09:59:11.149Z,31.93
2018-06-11T10:01:44.171Z,33.20
2018-06-11T10:04:11.395Z,30.23
2018-06-11T10:06:38.597Z,30.97
2018-06-11T10:09:07.277Z,32.30
2018-06-11T10:11:34.847Z,32.80
2018-06-11T10:14:07.689Z,30.33
2018-06-11T10:16:34.939Z,31.30
2018-06-11T10:19:02.356Z,29.70
2018-06-11T10:21:29.614Z,29.80
2018-06-11T10:23:56.866Z,28.07
2018-06-11T10:26:24.103Z,26.90
2018-06-11T10:28:53.319Z,23.13
2018-06-11T10:31:23.331Z,22.80
2018-06-11T10:33:50.563Z,21.80
2018-06-11T10:36:17.800Z,21.27
2018-06-11T10:38:45.043Z,20.90
2018-06-11T10:41:12.299Z,20.43
2018-06-11T10:43:39.775Z,20.67
2018-06-11T10:46:11.709Z,23.83
2018-06-11T10:48:39.211Z,21.63
2018-06-11T10:51:06.673Z,21.40
2018-06-11T10:53:34.232Z,20.10
2018-06-11T10:56:01.664Z,18.87
2018-06-11T10:58:29.073Z,19.53
2018-06-11T11:00:56.503Z,20.00
2018-06-11T11:03:23.952Z,18.87
2018-06-11T11:05:51.373Z,20.17
2018-06-11T11:08:18.798Z,17.37
2018-06-11T11:10:46.312Z,18.47
2018-06-11T11:13:13.695Z,18.17
2018-06-11T11:15:41.095Z,17.97
2018-06-11T11:18:08.527Z,19.30
2018-06-11T11:20:35.984Z,19.40
2018-06-11T11:23:03.497Z,15.90
2018-06-11T11:25:30.918Z,18.30
2018-06-11T11:27:58.487Z,16.60
2018-06-11T11:30:26.348Z,17.60
2018-06-11T11:32:53.908Z,14.87
2018-06-11T11:35:21.345Z,15.77
2018-06-11T11:37:48.736Z,14.63
2018-06-11T11:40:16.120Z,13.83
2018-06-11T11:42:43.903Z,14.20
2018-06-11T11:45:11.595Z,13.47
2018-06-11T11:47:38.986Z,15.00
2018-06-11T11:50:06.405Z,13.50
2018-06-11T11:52:33.823Z,15.47
2018-06-11T11:55:01.367Z,15.40
2018-06-11T11:57:28.774Z,16.77
2018-06-11T11:59:56.155Z,14.77
2018-06-11T12:02:23.579Z,14.97
2018-06-11T12:04:51.051Z,15.20
2018-06-11T12:07:18.508Z,16.70
2018-06-11T12:09:45.966Z,14.77
2018-06-11T12:12:13.443Z,16.30
2018-06-11T12:14:40.949Z,17.60
2018-06-11T12:17:08.599Z,15.00
2018-06-11T12:19:36.090Z,12.00
2018-06-11T12:22:03.522Z,16.10
2018-06-11T12:24:30.949Z,15.50
2018-06-11T12:26:58.436Z,15.83
2018-06-11T12:29:25.971Z,14.17
2018-06-11T12:31:53.379Z,13.17
2018-06-11T12:34:20.901Z,11.30
2018-06-11T12:36:48.332Z,12.87
2018-06-11T12:39:15.895Z,13.73
2018-06-11T12:41:43.341Z,12.30
2018-06-11T12:44:10.811Z,12.63
2018-06-11T12:46:38.604Z,10.53
2018-06-11T12:49:06.084Z,10.10
2018-06-11T12:51:33.555Z,13.13
2018-06-11T12:54:01.505Z,11.63
2018-06-11T12:56:28.932Z,9.53
2018-06-11T12:58:56.467Z,10.13
2018-06-11T13:01:24.263Z,11.17
2018-06-11T13:03:54.960Z,11.60
2018-06-11T13:06:22.626Z,10.40
2018-06-11T13:08:50.079Z,10.30
2018-06-11T13:11:17.490Z,9.93
2018-06-11T13:13:44.977Z,9.97
2018-06-11T13:16:12.495Z,7.83
2018-06-11T13:18:42.448Z,7.23
2018-06-11T13:21:09.852Z,7.50
2018-06-11T13:23:37.421Z,8.03
2018-06-11T13:26:04.803Z,9.37
2018-06-11T13:28:32.223Z,9.40
2018-06-11T13:31:04.008Z,7.90
2018-06-11T13:33:31.443Z,7.03
2018-06-11T13:35:58.948Z,6.20
2018-06-11T13:38:26.415Z,6.70
2018-06-11T13:40:53.845Z,6.30
2018-06-11T13:43:21.301Z,7.30
2018-06-11T13:45:50.267Z,8.00
2018-06-11T13:48:17.698Z,6.40
2018-06-11T13:50:45.272Z,5.50
2018-06-11T13:53:12.716Z,7.57
2018-06-11T13:55:40.169Z,7.43
2018-06-11T13:58:12.356Z,7.63
2018-06-11T14:00:39.751Z,7.73
2018-06-11T14:03:07.167Z,6.13
2018-06-11T14:05:34.548Z,6.93
2018-06-11T14:08:01.987Z,5.73
2018-06-11T14:10:29.411Z,6.90
2018-06-11T14:12:56.975Z,7.50
2018-06-11T14:15:24.456Z,7.63
2018-06-11T14:17:51.863Z,7.20
2018-06-11T14:20:20.048Z,7.67
2018-06-11T14:22:47.555Z,6.60
2018-06-11T14:25:15.328Z,6.13
2018-06-11T14:27:42.754Z,4.50
2018-06-11T14:30:10.206Z,6.27
2018-06-11T14:32:37.632Z,5.77
2018-06-11T14:35:05.283Z,6.10
2018-06-11T14:37:32.811Z,5.50
2018-06-11T14:40:00.451Z,5.83
2018-06-11T14:42:27.870Z,5.37
2018-06-11T14:44:56.196Z,5.33
2018-06-11T14:47:23.621Z,5.30
2018-06-11T14:49:51.092Z,5.10
2018-06-11T14:52:19.698Z,5.90
2018-06-11T14:54:47.176Z,5.77
2018-06-11T14:57:15.119Z,6.10
2018-06-11T14:59:42.607Z,6.23
2018-06-11T15:02:10.117Z,6.47
2018-06-11T15:04:37.569Z,6.50
2018-06-11T15:07:05.111Z,6.70
2018-06-11T15:09:32.623Z,6.43
2018-06-11T15:11:59.979Z,7.00
2018-06-11T15:14:27.392Z,6.70
2018-06-11T15:16:54.894Z,5.83
2018-06-11T15:19:22.383Z,6.43
2018-06-11T15:21:49.813Z,6.43
2018-06-11T15:24:17.220Z,5.60
2018-06-11T15:26:45.059Z,6.03
2018-06-11T15:29:13.655Z,5.80
2018-06-11T15:31:40.980Z,5.57
2018-06-11T15:34:08.419Z,5.97
2018-06-11T15:36:36.943Z,6.33
2018-06-11T15:39:06.564Z,5.03
2018-06-11T15:41:34.053Z,5.60
2018-06-11T15:44:01.439Z,5.33
2018-06-11T15:46:28.882Z,6.00
2018-06-11T15:48:56.373Z,5.93
2018-06-11T15:51:23.794Z,5.57
2018-06-11T15:53:51.268Z,6.10
2018-06-11T15:56:18.655Z,5.30
2018-06-11T15:58:46.072Z,6.80
2018-06-11T16:01:13.578Z,6.97
2018-06-11T16:03:40.979Z,7.30
2018-06-11T16:06:08.480Z,6.70
2018-06-11T16:08:36.033Z,6.83
2018-06-11T16:11:03.516Z,7.50
2018-06-11T16:13:30.911Z,7.10
2018-06-11T16:15:58.328Z,6.93
2018-06-11T16:18:25.807Z,6.90
2018-06-11T16:20:53.225Z,7.53
2018-06-11T16:23:21.071Z,5.63
2018-06-11T16:25:48.499Z,6.40
2018-06-11T16:28:15.952Z,6.13
2018-06-11T16:30:43.388Z,6.60
2018-06-11T16:33:11.213Z,6.70
2018-06-11T16:35:38.620Z,7.20
2018-06-11T16:38:06.077Z,6.50
2018-06-11T16:40:33.501Z,7.50
2018-06-11T16:43:01.085Z,6.37
2018-06-11T16:45:28.518Z,6.10
2018-06-11T16:47:55.974Z,6.97
2018-06-11T16:50:23.481Z,6.60
2018-06-11T16:52:50.955Z,7.50
2018-06-11T16:55:18.589Z,6.67
2018-06-11T16:57:46.060Z,7.17
2018-06-11T17:00:13.503Z,7.00
2018-06-11T17:02:40.947Z,7.60
2018-06-11T17:05:08.370Z,6.13
2018-06-11T17:07:35.927Z,6.70
2018-06-11T17:10:03.399Z,7.10
2018-06-11T17:12:30.986Z,6.53
2018-06-11T17:14:58.412Z,5.97
2018-06-11T17:17:25.999Z,6.97
2018-06-11T17:19:53.455Z,6.37
2018-06-11T17:22:20.923Z,6.43
2018-06-11T17:24:48.361Z,7.37
2018-06-11T17:27:15.802Z,7.73
2018-06-11T17:29:43.243Z,6.40
2018-06-11T17:32:10.647Z,7.57
2018-06-11T17:34:38.098Z,6.67
2018-06-11T17:37:05.533Z,7.80
2018-06-11T17:39:33.003Z,7.00
2018-06-11T17:42:00.492Z,7.53
2018-06-11T17:44:27.912Z,7.37
2018-06-11T17:46:55.479Z,7.43
2018-06-11T17:49:22.994Z,7.10
2018-06-11T17:51:50.413Z,7.70
2018-06-11T17:54:18.019Z,7.10
2018-06-11T17:56:45.428Z,7.30
2018-06-11T17:59:12.844Z,7.30
2018-06-11T18:01:40.410Z,6.20
2018-06-11T18:04:07.924Z,6.53
2018-06-11T18:06:35.387Z,7.13
2018-06-11T18:09:03.347Z,7.10
2018-06-11T18:11:31.382Z,7.10
2018-06-11T18:13:59.354Z,7.00
2018-06-11T18:16:27.008Z,7.40
2018-06-11T18:18:54.656Z,6.40
2018-06-11T18:21:22.292Z,7.80
2018-06-11T18:23:49.877Z,7.20
2018-06-11T18:26:18.036Z,6.93
2018-06-11T18:28:49.570Z,6.70
2018-06-11T18:31:18.182Z,7.10
2018-06-11T18:33:45.754Z,6.60
2018-06-11T18:36:15.516Z,7.73
2018-06-11T18:38:43.247Z,8.60
2018-06-11T18:41:10.953Z,8.60
2018-06-11T18:43:38.507Z,7.17
2018-06-11T18:46:06.885Z,9.50
2018-06-11T18:48:34.488Z,9.10
2018-06-11T18:51:02.003Z,8.90
2018-06-11T18:53:38.105Z,8.73
2018-06-11T18:56:05.669Z,8.70
2018-06-11T18:58:33.191Z,8.53
2018-06-11T19:01:00.993Z,7.97
2018-06-11T19:03:34.392Z,7.53
2018-06-11T19:06:02.053Z,7.73
2018-06-11T19:08:29.728Z,8.40
2018-06-11T19:10:57.239Z,7.73
2018-06-11T19:13:24.544Z,9.60
2018-06-11T19:15:51.910Z,8.13
2018-06-11T19:18:19.183Z,7.23
2018-06-11T19:20:46.494Z,8.90
2018-06-11T19:23:13.714Z,8.13
2018-06-11T19:25:42.177Z,8.27
2018-06-11T19:28:10.541Z,8.23
2018-06-11T19:30:38.076Z,7.73
2018-06-11T19:33:06.122Z,8.50
2018-06-11T19:35:33.770Z,7.93
2018-06-11T19:38:01.279Z,7.60
2018-06-11T19:40:28.796Z,8.50
2018-06-11T19:42:56.106Z,7.73
2018-06-11T19:45:23.405Z,10.10
2018-06-11T19:47:50.773Z,8.43
2018-06-11T19:50:18.004Z,7.70
2018-06-11T19:52:45.371Z,7.73
2018-06-11T19:55:12.603Z,8.57
2018-06-11T19:57:39.845Z,7.73
2018-06-11T20:00:07.091Z,7.90
2018-06-11T20:02:34.391Z,7.83
2018-06-11T20:05:01.779Z,7.73
2018-06-11T20:07:28.996Z,7.13
2018-06-11T20:09:56.207Z,8.70
2018-06-11T20:12:23.490Z,7.60
2018-06-11T20:14:50.739Z,7.93
2018-06-11T20:17:17.959Z,8.00
2018-06-11T20:19:45.431Z,8.23
2018-06-11T20:22:12.970Z,7.70
2018-06-11T20:24:40.457Z,8.77
2018-06-11T20:27:07.910Z,7.33
2018-06-11T20:29:35.384Z,7.23
2018-06-11T20:32:02.933Z,7.60
2018-06-11T20:34:30.411Z,7.97
2018-06-11T20:36:57.875Z,7.13
2018-06-11T20:39:25.271Z,7.90
2018-06-11T20:41:52.727Z,8.73
2018-06-11T20:44:20.266Z,7.93
2018-06-11T20:46:47.733Z,7.33
2018-06-11T20:49:15.151Z,7.20
2018-06-11T20:51:42.623Z,7.50
2018-06-11T20:54:10.108Z,6.70
2018-06-11T20:56:37.600Z,7.10
2018-06-11T20:59:05.051Z,7.60
2018-06-11T21:01:32.545Z,7.00
2018-06-11T21:04:00.067Z,7.40
2018-06-11T21:06:27.558Z,7.90
2018-06-11T21:08:55.258Z,7.53
2018-06-11T21:11:22.799Z,6.80
2018-06-11T21:13:50.232Z,7.93
2018-06-11T21:16:17.644Z,7.20
2018-06-11T21:18:45.244Z,6.60
2018-06-11T21:21:12.667Z,6.50
2018-06-11T21:23:40.060Z,7.10
2018-06-11T21:26:07.552Z,6.63
2018-06-11T21:28:35.091Z,6.20
2018-06-11T21:31:02.515Z,6.63
2018-06-11T21:33:29.959Z,7.10
2018-06-11T21:35:57.350Z,6.60
2018-06-11T21:38:24.945Z,7.30
2018-06-11T21:40:52.327Z,7.83
2018-06-11T21:43:19.733Z,7.90
2018-06-11T21:45:47.118Z,7.63
2018-06-11T21:48:14.479Z,8.50
2018-06-11T21:50:41.859Z,8.43
2018-06-11T21:53:09.334Z,9.30
2018-06-11T21:55:36.699Z,8.70
2018-06-11T21:58:04.227Z,9.30
2018-06-11T22:00:31.660Z,10.00
2018-06-11T22:02:59.108Z,9.53
2018-06-11T22:05:26.547Z,8.97
2018-06-11T22:07:53.919Z,9.60
2018-06-11T22:10:21.319Z,9.93
2018-06-11T22:12:49.212Z,9.77
2018-06-11T22:15:16.604Z,9.57
2018-06-11T22:17:44.140Z,10.20
2018-06-11T22:20:11.567Z,9.50
2018-06-11T22:22:38.947Z,9.70
2018-06-11T22:25:06.373Z,9.53
2018-06-11T22:27:33.815Z,10.90
2018-06-11T22:30:01.173Z,11.20
2018-06-11T22:32:28.610Z,10.80
2018-06-11T22:34:56.087Z,10.53
2018-06-11T22:37:23.500Z,11.10
2018-06-11T22:39:50.883Z,10.53
2018-06-11T22:42:18.239Z,10.33
2018-06-11T22:44:45.847Z,10.27
2018-06-11T22:47:13.257Z,10.80
2018-06-11T22:49:40.673Z,10.90
2018-06-11T22:52:08.044Z,10.00
2018-06-11T22:54:35.419Z,10.50
2018-06-11T22:57:02.786Z,11.07
2018-06-11T22:59:30.213Z,11.77
2018-06-11T23:01:57.587Z,11.87
2018-06-11T23:04:24.879Z,12.07
2018-06-11T23:06:52.308Z,11.67
2018-06-11T23:09:19.680Z,12.27
2018-06-11T23:11:47.255Z,12.57
2018-06-11T23:14:14.659Z,12.83
2018-06-11T23:16:42.061Z,12.80
2018-06-11T23:19:09.412Z,12.60
2018-06-11T23:21:36.786Z,11.50
2018-06-11T23:24:04.286Z,13.13
2018-06-11T23:26:31.578Z,13.63
2018-06-11T23:28:59.098Z,12.00
2018-06-11T23:31:26.499Z,12.50
2018-06-11T23:33:54.099Z,12.10
2018-06-11T23:36:21.600Z,12.70
2018-06-11T23:38:49.005Z,12.93
2018-06-11T23:41:16.428Z,11.80
2018-06-11T23:43:44.571Z,13.60
2018-06-11T23:46:11.960Z,12.13
2018-06-11T23:48:39.287Z,12.20
2018-06-11T23:51:06.779Z,12.30
2018-06-11T23:53:34.139Z,13.97
2018-06-11T23:56:01.490Z,12.70
2018-06-11T23:58:28.860Z,13.90
